Airfield :
LOGIN :

Register | Disclaimer

   EN    FR    IT 

 










Legend :    VFR   Marginal VFR   IFR   Intensive IFR   Very Intensive IFR
Visi :
Ceiling :
>= 8 km
>= 3000ft
5 to 8 km
1000 to 3000 ft
1500m to 5 km
500 to 1000 ft
800 to 1500m
200 to 500 ft
< 800m
< 200 ft
Symbols :   Thunderstorms  Fog  Heavy snow  Heavy precipitations  Wind > 20 kt
SIGMETs :     Misc.  Thunderstorms  Icing  Turbulence  Mountain Waves  Volcanic Ashes






- Airport Elevation : 39 ft


ETNH - Hohn AB

CURRENT METAR :
  • 301120Z 27023KT 9999 SCT018TCU BKN030 06/03 Q1002 BLU BLU+ TEMPO GRN

EXPIRED METARs :
  • 301020Z 27026G36KT 6000 -SHRA BKN018TCU BKN040 05/03 Q1002 WHT BLU+ TEMPO GRN
  • 301003Z 27027G43KT 6000 -SHRA BKN015CB BKN040 05/03 Q1002 WHT BLU+ TEMPO GRN
  • 300952Z 26026G43KT 8000 -SHRA SCT020CB BKN040 05/03 Q1002 BLU BLU+ TEMPO GRN
  • 300920Z 26022KT 8000 -SHRA FEW015 SCT025TCU BKN040 05/03 Q1002 RESHRA BLU BLU+ TEMPO GRN
  • 300855Z 27023G36KT 9000 SCT025CB SCT040 05/03 Q1002 RESHRA BLU+BLU+ TEMPO GRN
  • 300847Z 26021G34KT 5000 SHRA BKN025CB SCT120 05/02 Q1002 WHT BLU+ TEMPO GRN

TAF AMD TAF ETNH
Valid from the 30 at 09:00 until the 30 at 18:00 UTC


300914Z 3009/3018 28020G30KT 9999 NSW SCT030
TEMPO 3009/3012 28020G40KT 4000 SHRA BKN015CB
PROB30 3009/3015 30020G40KT 1500 TSRA BKN010CB
TEMPO 3012/3015 30025G45KT 3000 SHRAGS BKN010CB BY ETGL



MET'MAP, your aeronautical weather chart ! - Copyright ORBIFLY December 2007 - Disclaimer

ORBIFLY MET'MAP TEAM :

Programming & Development : Alexandra Zaïnal
Original concept : Baudouin d'Aumeries
Technical & hardware support : Manuel Goepfert
Assistance : Marc-Olivier Méhu




SOURCES & CREDITS :

   NOAA